createdAt,value
2023-06-07T00:01:53.752Z,101371.50
2023-06-07T00:04:20.339Z,101366.78
2023-06-07T00:06:48.258Z,101370.81
2023-06-07T00:09:15.365Z,101380.25
2023-06-07T00:11:43.624Z,101372.81
2023-06-07T00:14:10.153Z,101366.69
2023-06-07T00:16:36.639Z,101360.00
2023-06-07T00:19:04.642Z,101369.53
2023-06-07T00:21:31.357Z,101375.38
2023-06-07T00:23:57.961Z,101362.09
2023-06-07T00:26:25.094Z,101366.66
2023-06-07T00:28:52.534Z,101369.28
2023-06-07T00:31:19.031Z,101366.41
2023-06-07T00:33:45.695Z,101350.97
2023-06-07T00:36:12.130Z,101371.41
2023-06-07T00:38:38.680Z,101348.72
2023-06-07T00:41:05.177Z,101372.56
2023-06-07T00:43:31.637Z,101357.03
2023-06-07T00:45:58.300Z,101359.75
2023-06-07T00:48:24.839Z,101368.41
2023-06-07T00:50:52.379Z,101360.63
2023-06-07T00:53:18.974Z,101359.31
2023-06-07T00:55:46.378Z,101369.34
2023-06-07T00:58:12.949Z,101363.59
2023-06-07T01:00:39.419Z,101361.41
2023-06-07T01:03:07.119Z,101359.44
2023-06-07T01:05:34.283Z,101352.03
2023-06-07T01:08:01.384Z,101363.59
2023-06-07T01:10:28.494Z,101352.06
2023-06-07T01:12:58.065Z,101355.66
2023-06-07T01:15:25.505Z,101354.09
2023-06-07T01:17:54.966Z,101359.47
2023-06-07T01:20:25.533Z,101356.97
2023-06-07T01:22:58.045Z,101348.94
2023-06-07T01:25:25.299Z,101360.94
2023-06-07T01:27:58.138Z,101363.19
2023-06-07T01:30:26.043Z,101358.22
2023-06-07T01:32:53.801Z,101362.66
2023-06-07T01:51:42.451Z,101350.63
2023-06-07T01:54:09.369Z,101340.41
2023-06-07T01:56:54.663Z,101347.00
2023-06-07T01:59:21.252Z,101343.56
2023-06-07T02:01:50.919Z,101346.84
2023-06-07T02:04:20.925Z,101337.47
2023-06-07T02:06:51.891Z,101331.88
2023-06-07T02:09:20.393Z,101332.13
2023-06-07T02:11:47.784Z,101336.84
2023-06-07T02:14:14.352Z,101334.13
2023-06-07T02:16:41.755Z,101321.03
2023-06-07T02:19:09.171Z,101334.56
2023-06-07T02:21:37.604Z,101337.41
2023-06-07T02:24:05.411Z,101330.56
2023-06-07T02:26:31.888Z,101323.59
2023-06-07T02:28:58.367Z,101331.09
2023-06-07T02:31:25.640Z,101331.53
2023-06-07T02:33:52.737Z,101332.25
2023-06-07T02:36:22.229Z,101332.41
2023-06-07T02:38:49.302Z,101327.75
2023-06-07T02:41:16.827Z,101333.81
2023-06-07T02:43:44.986Z,101325.41
2023-06-07T02:46:12.621Z,101335.72
2023-06-07T02:48:39.940Z,101325.16
2023-06-07T02:51:06.523Z,101326.56
2023-06-07T02:53:32.957Z,101329.00
2023-06-07T02:55:59.460Z,101331.59
2023-06-07T02:58:25.953Z,101329.31
2023-06-07T03:00:55.618Z,101325.56
2023-06-07T03:03:22.343Z,101337.13
2023-06-07T03:05:50.832Z,101339.69
2023-06-07T03:08:17.368Z,101331.00
2023-06-07T03:10:43.874Z,101328.31
2023-06-07T03:13:10.330Z,101330.44
2023-06-07T03:15:39.772Z,101336.44
2023-06-07T03:18:06.402Z,101344.72
2023-06-07T03:20:35.760Z,101341.28
2023-06-07T03:23:04.060Z,101338.00
2023-06-07T03:25:31.301Z,101333.44
2023-06-07T03:27:58.257Z,101348.13
2023-06-07T03:30:24.787Z,101345.72
2023-06-07T03:32:52.223Z,101345.88
2023-06-07T03:35:19.556Z,101346.59
2023-06-07T03:37:46.042Z,101346.28
2023-06-07T03:40:13.144Z,101349.41
2023-06-07T03:42:39.928Z,101343.88
2023-06-07T03:45:06.999Z,101350.72
2023-06-07T03:47:33.974Z,101344.28
2023-06-07T03:50:00.887Z,101346.72
2023-06-07T03:52:27.267Z,101351.81
2023-06-07T03:54:53.833Z,101351.88
2023-06-07T03:57:20.331Z,101348.28
2023-06-07T03:59:46.807Z,101352.69
2023-06-07T04:02:13.630Z,101351.28
2023-06-07T04:04:40.230Z,101351.25
2023-06-07T04:07:08.607Z,101342.00
2023-06-07T04:09:35.196Z,101348.13
2023-06-07T04:12:05.637Z,101340.00
2023-06-07T04:14:32.088Z,101351.25
2023-06-07T04:16:58.645Z,101346.56
2023-06-07T04:19:25.147Z,101351.09
2023-06-07T04:21:54.153Z,101346.13
2023-06-07T04:24:20.740Z,101350.97
2023-06-07T04:26:49.253Z,101353.97
2023-06-07T04:29:16.121Z,101343.69
2023-06-07T04:31:43.626Z,101351.56
2023-06-07T04:34:11.288Z,101342.72
2023-06-07T04:36:40.166Z,101343.44
2023-06-07T04:39:10.262Z,101340.13
2023-06-07T04:41:37.371Z,101347.97
2023-06-07T04:44:06.846Z,101340.72
2023-06-07T04:46:33.409Z,101352.00
2023-06-07T04:49:00.298Z,101349.88
2023-06-07T04:51:30.550Z,101355.00
2023-06-07T04:53:59.664Z,101353.56
2023-06-07T04:56:29.633Z,101353.13
2023-06-07T04:58:56.778Z,101348.44
2023-06-07T05:01:24.145Z,101353.28
2023-06-07T05:03:58.526Z,101350.25
2023-06-07T05:06:25.024Z,101357.00
2023-06-07T05:08:51.599Z,101345.44
2023-06-07T05:11:18.089Z,101340.16
2023-06-07T05:13:44.561Z,101365.84
2023-06-07T05:16:17.426Z,101358.13
2023-06-07T05:18:47.438Z,101366.38
2023-06-07T05:21:15.230Z,101354.38
2023-06-07T05:23:45.207Z,101353.88
2023-06-07T05:26:12.392Z,101359.81
2023-06-07T05:28:39.048Z,101359.25
2023-06-07T05:31:05.739Z,101358.97
2023-06-07T05:33:32.269Z,101365.09
2023-06-07T05:35:59.184Z,101365.00
2023-06-07T05:38:26.670Z,101360.09
2023-06-07T05:40:55.494Z,101362.66
2023-06-07T05:43:22.024Z,101361.88
2023-06-07T05:45:48.661Z,101358.44
2023-06-07T05:48:15.225Z,101371.06
2023-06-07T05:50:41.784Z,101362.38
2023-06-07T05:53:08.400Z,101350.00
2023-06-07T05:55:35.766Z,101347.75
2023-06-07T05:58:02.259Z,101354.81
2023-06-07T06:00:29.893Z,101356.88
2023-06-07T06:02:57.874Z,101365.53
2023-06-07T06:05:29.298Z,101351.09
2023-06-07T06:07:59.376Z,101354.53
2023-06-07T06:10:27.301Z,101350.53
2023-06-07T06:12:56.810Z,101327.91
2023-06-07T06:15:25.712Z,101342.72
2023-06-07T06:17:55.492Z,101359.97
2023-06-07T06:20:23.108Z,101353.34
2023-06-07T06:22:49.884Z,101368.53
2023-06-07T06:25:16.369Z,101373.88
2023-06-07T06:27:43.183Z,101364.78
2023-06-07T06:30:10.134Z,101358.00
2023-06-07T06:32:36.994Z,101358.91
2023-06-07T06:35:04.431Z,101353.09
2023-06-07T06:37:31.100Z,101368.91
2023-06-07T06:39:57.616Z,101355.63
2023-06-07T06:42:24.216Z,101365.94
2023-06-07T06:44:50.794Z,101369.03
2023-06-07T06:47:17.341Z,101371.16
2023-06-07T06:49:43.950Z,101376.75
2023-06-07T06:52:11.476Z,101369.53
2023-06-07T06:54:38.005Z,101375.41
2023-06-07T06:57:04.909Z,101378.19
2023-06-07T06:59:31.446Z,101387.41
2023-06-07T07:01:58.151Z,101380.91
2023-06-07T07:04:24.831Z,101380.59
2023-06-07T07:06:54.402Z,101395.38
2023-06-07T07:09:20.998Z,101368.75
2023-06-07T07:11:47.425Z,101393.66
2023-06-07T07:14:13.985Z,101384.72
2023-06-07T07:16:40.690Z,101379.13
2023-06-07T07:19:07.252Z,101392.47
2023-06-07T07:21:33.804Z,101377.34
2023-06-07T07:24:00.694Z,101378.16
2023-06-07T07:26:28.562Z,101398.03
2023-06-07T07:28:55.098Z,101382.59
2023-06-07T07:31:22.428Z,101386.09
2023-06-07T07:33:49.506Z,101363.63
2023-06-07T07:36:17.432Z,101386.81
2023-06-07T07:38:47.113Z,101377.03
2023-06-07T07:41:15.340Z,101372.66
2023-06-07T07:43:42.048Z,101373.84
2023-06-07T07:46:08.853Z,101380.28
2023-06-07T07:48:38.429Z,101384.38
2023-06-07T07:51:05.676Z,101385.78
2023-06-07T07:53:32.616Z,101374.38
2023-06-07T07:55:59.096Z,101388.91
2023-06-07T07:58:26.654Z,101378.31
2023-06-07T08:00:53.900Z,101376.94
2023-06-07T08:03:20.805Z,101365.88
2023-06-07T08:05:47.467Z,101382.53
2023-06-07T08:08:15.924Z,101384.78
2023-06-07T08:10:42.472Z,101355.50
2023-06-07T08:13:08.875Z,101379.72
2023-06-07T08:15:35.407Z,101367.78
2023-06-07T08:18:01.901Z,101375.94
2023-06-07T08:20:28.709Z,101368.63
2023-06-07T08:22:55.285Z,101363.00
2023-06-07T08:25:21.854Z,101376.03
2023-06-07T08:27:48.414Z,101360.84
2023-06-07T08:30:15.361Z,101370.00
2023-06-07T08:32:46.323Z,101366.81
2023-06-07T08:35:13.002Z,101357.09
2023-06-07T08:37:39.541Z,101372.94
2023-06-07T08:40:07.365Z,101374.25
2023-06-07T08:42:34.858Z,101370.78
2023-06-07T08:45:02.062Z,101372.94
2023-06-07T08:47:29.780Z,101354.41
2023-06-07T08:49:57.617Z,101368.47
2023-06-07T08:52:27.897Z,101357.84
2023-06-07T08:54:59.858Z,101356.44
2023-06-07T08:57:27.301Z,101349.16
2023-06-07T08:59:53.979Z,101339.13
2023-06-07T09:02:25.722Z,101339.47
2023-06-07T09:04:52.625Z,101347.16
2023-06-07T09:07:19.226Z,101371.13
2023-06-07T09:09:45.740Z,101368.66
2023-06-07T09:12:12.554Z,101355.28
2023-06-07T09:14:39.372Z,101341.22
2023-06-07T09:17:06.338Z,101335.94
2023-06-07T09:19:39.043Z,101367.56
2023-06-07T09:22:08.459Z,101336.38
2023-06-07T09:24:35.861Z,101356.44
2023-06-07T09:27:04.457Z,101358.16
2023-06-07T09:29:40.092Z,101340.75
2023-06-07T09:32:25.305Z,101359.22
2023-06-07T09:34:54.358Z,101361.56
2023-06-07T09:37:23.741Z,101347.50
2023-06-07T09:39:54.698Z,101352.44
2023-06-07T09:42:22.117Z,101350.56
2023-06-07T09:44:49.328Z,101346.63
2023-06-07T09:47:24.881Z,101331.25
2023-06-07T09:50:20.120Z,101355.13
2023-06-07T09:52:56.160Z,101349.63
2023-06-07T09:55:28.775Z,101322.63
2023-06-07T09:58:26.388Z,101345.22
2023-06-07T10:00:55.145Z,101346.41
2023-06-07T10:03:21.982Z,101334.19
2023-06-07T10:05:48.755Z,101347.91
2023-06-07T10:08:20.864Z,101320.72
2023-06-07T10:10:49.920Z,101325.66
2023-06-07T10:13:19.520Z,101342.44
2023-06-07T10:15:47.569Z,101334.69
2023-06-07T10:18:20.207Z,101330.06
2023-06-07T10:21:02.067Z,101319.31
2023-06-07T10:23:48.442Z,101330.47
2023-06-07T10:26:44.466Z,101295.63
2023-06-07T10:29:21.845Z,101321.38
2023-06-07T10:31:59.208Z,101331.75
2023-06-07T10:34:28.561Z,101305.56
2023-06-07T10:36:55.488Z,101301.56
2023-06-07T10:39:22.290Z,101319.00
2023-06-07T10:41:49.545Z,101316.00
2023-06-07T10:44:16.781Z,101315.16
2023-06-07T10:46:43.442Z,101296.81
2023-06-07T10:49:40.819Z,101316.59
2023-06-07T10:52:07.749Z,101314.56
2023-06-07T10:54:41.811Z,101298.09
2023-06-07T10:57:08.524Z,101315.09
2023-06-07T10:59:39.056Z,101315.88
2023-06-07T11:02:25.485Z,101290.16
2023-06-07T11:04:54.512Z,101305.84
2023-06-07T11:07:30.016Z,101291.78
2023-06-07T11:10:09.317Z,101302.03
2023-06-07T11:12:36.276Z,101299.28
2023-06-07T11:15:18.311Z,101304.72
2023-06-07T11:18:01.586Z,101303.19
2023-06-07T11:20:37.901Z,101305.44
2023-06-07T11:23:24.223Z,101303.84
2023-06-07T11:26:09.793Z,101288.00
2023-06-07T11:28:39.302Z,101298.41
2023-06-07T11:31:13.117Z,101281.22
2023-06-07T11:33:43.874Z,101270.53
2023-06-07T11:36:20.433Z,101275.34
2023-06-07T11:38:51.708Z,101290.63
2023-06-07T11:41:18.385Z,101269.69
2023-06-07T11:43:46.796Z,101291.63
2023-06-07T11:46:19.299Z,101283.41
2023-06-07T11:48:46.790Z,101283.41
2023-06-07T11:51:14.021Z,101300.78
2023-06-07T11:53:40.515Z,101293.41
2023-06-07T11:56:34.737Z,101295.72
2023-06-07T11:59:01.702Z,101275.22
2023-06-07T12:01:28.944Z,101275.72
2023-06-07T12:03:57.291Z,101261.03
2023-06-07T12:06:27.622Z,101265.69
2023-06-07T12:08:54.142Z,101273.31
2023-06-07T12:11:28.359Z,101276.03
2023-06-07T12:14:02.665Z,101247.50
2023-06-07T12:26:16.460Z,101250.47
2023-06-07T12:28:56.028Z,101237.75
2023-06-07T12:31:34.378Z,101255.00
2023-06-07T12:34:08.379Z,101257.53
2023-06-07T12:36:36.492Z,101246.09
2023-06-07T12:39:18.648Z,101240.63
2023-06-07T12:42:06.526Z,101224.97
2023-06-07T12:48:24.763Z,101231.31
2023-06-07T12:50:51.684Z,101203.81
2023-06-07T12:53:55.193Z,101233.88
2023-06-07T12:56:22.636Z,101216.06
2023-06-07T13:16:57.235Z,101230.19
2023-06-07T13:19:25.573Z,101224.09
2023-06-07T13:22:44.778Z,101216.03
2023-06-07T13:25:11.308Z,101238.59
2023-06-07T13:27:46.291Z,101192.53
2023-06-07T13:30:59.769Z,101196.69
2023-06-07T13:33:29.208Z,101195.78
2023-06-07T13:46:36.047Z,101174.28
2023-06-07T13:49:06.886Z,101175.84
2023-06-07T13:51:36.812Z,101193.06
2023-06-07T13:54:03.720Z,101176.66
2023-06-07T13:56:30.247Z,101195.59
2023-06-07T13:59:16.043Z,101189.41
2023-06-07T14:01:44.780Z,101183.75
2023-06-07T14:07:28.694Z,101190.72
2023-06-07T14:21:07.493Z,101161.28
2023-06-07T14:23:41.140Z,101171.75
2023-06-07T14:26:07.668Z,101175.53
2023-06-07T14:28:39.941Z,101173.19
2023-06-07T14:31:09.714Z,101153.72
2023-06-07T14:33:45.824Z,101152.38
2023-06-07T14:36:42.764Z,101154.34
2023-06-07T14:39:12.684Z,101152.28
2023-06-07T14:44:38.690Z,101168.03
2023-06-07T14:53:26.598Z,101173.75
2023-06-07T14:56:04.683Z,101158.69
2023-06-07T14:58:53.820Z,101142.47
2023-06-07T15:01:28.109Z,101158.91
2023-06-07T15:08:07.422Z,101152.00
2023-06-07T15:10:34.021Z,101140.06
2023-06-07T15:13:00.906Z,101183.22
2023-06-07T15:15:29.355Z,101150.25
2023-06-07T15:17:57.960Z,101165.34
2023-06-07T15:20:27.800Z,101165.94
2023-06-07T15:22:54.440Z,101165.69
2023-06-07T15:25:21.198Z,101169.94
2023-06-07T15:27:47.821Z,101152.38
2023-06-07T15:30:14.432Z,101159.31
2023-06-07T15:32:41.170Z,101129.28
2023-06-07T15:35:10.808Z,101153.75
2023-06-07T15:37:39.162Z,101157.63
2023-06-07T15:40:07.186Z,101144.94
2023-06-07T15:42:37.665Z,101130.50
2023-06-07T15:45:06.356Z,101159.09
2023-06-07T15:47:32.974Z,101150.59
2023-06-07T15:53:34.963Z,101155.69
2023-06-07T15:56:01.475Z,101164.91
2023-06-07T15:58:27.963Z,101165.44
2023-06-07T16:00:54.424Z,101165.91
2023-06-07T16:03:21.618Z,101163.03
2023-06-07T16:05:48.609Z,101158.28
2023-06-07T16:08:15.181Z,101159.50
2023-06-07T16:10:41.730Z,101158.63
2023-06-07T16:13:08.189Z,101156.81
2023-06-07T16:15:35.136Z,101158.97
2023-06-07T16:18:01.642Z,101154.06
2023-06-07T16:20:28.708Z,101137.41
2023-06-07T16:22:55.443Z,101128.72
2023-06-07T16:25:21.920Z,101121.66
2023-06-07T16:27:48.439Z,101143.00
2023-06-07T16:30:15.196Z,101150.44
2023-06-07T16:32:41.764Z,101138.19
2023-06-07T16:35:08.410Z,101137.91
2023-06-07T16:37:34.963Z,101136.91
2023-06-07T16:40:01.545Z,101133.31
2023-06-07T16:42:30.026Z,101133.97
2023-06-07T16:44:57.746Z,101125.75
2023-06-07T16:47:26.093Z,101138.44
2023-06-07T16:49:56.847Z,101106.50
2023-06-07T16:52:23.745Z,101144.59
2023-06-07T16:54:57.342Z,101139.09
2023-06-07T16:57:27.147Z,101140.06
2023-06-07T16:59:53.745Z,101131.00
2023-06-07T17:02:20.625Z,101136.94
2023-06-07T17:04:47.261Z,101128.69
2023-06-07T17:07:13.936Z,101111.16
2023-06-07T17:09:40.635Z,101140.38
2023-06-07T17:12:08.128Z,101128.03
2023-06-07T17:14:34.695Z,101135.03
2023-06-07T17:17:07.519Z,101114.94
2023-06-07T17:19:36.735Z,101123.13
2023-06-07T17:22:12.978Z,101112.41
2023-06-07T17:24:39.568Z,101118.97
2023-06-07T17:27:36.566Z,101145.59
2023-06-07T17:38:24.177Z,101149.91
2023-06-07T17:40:50.904Z,101123.75
2023-06-07T17:43:17.569Z,101117.84
2023-06-07T17:45:45.232Z,101112.22
2023-06-07T17:48:18.073Z,101123.31
2023-06-07T17:50:56.673Z,101139.50
2023-06-07T17:53:23.375Z,101108.72
2023-06-07T17:55:50.417Z,101134.19
2023-06-07T17:58:17.615Z,101135.16
2023-06-07T18:00:48.781Z,101147.94
2023-06-07T18:03:19.736Z,101131.09
2023-06-07T18:05:47.061Z,101126.88
2023-06-07T18:08:13.808Z,101115.06
2023-06-07T18:10:40.695Z,101150.34
2023-06-07T18:13:07.432Z,101130.06
2023-06-07T18:15:35.918Z,101150.56
2023-06-07T18:18:02.649Z,101145.06
2023-06-07T18:20:29.682Z,101134.50
2023-06-07T18:22:57.894Z,101133.69
2023-06-07T18:25:27.702Z,101129.91
2023-06-07T18:27:54.242Z,101135.88
2023-06-07T18:30:20.811Z,101153.34
2023-06-07T18:33:07.174Z,101147.00
2023-06-07T18:35:38.819Z,101145.84
2023-06-07T18:38:15.181Z,101149.69
2023-06-07T18:40:41.840Z,101120.16
2023-06-07T18:43:17.869Z,101138.84
2023-06-07T18:45:44.678Z,101138.78
2023-06-07T18:48:11.648Z,101166.56
2023-06-07T18:50:38.524Z,101147.16
2023-06-07T18:53:05.166Z,101171.50
2023-06-07T18:55:31.851Z,101190.38
2023-06-07T18:57:58.444Z,101163.94
2023-06-07T19:00:25.447Z,101193.09
2023-06-07T19:02:52.892Z,101188.22
2023-06-07T19:05:26.250Z,101188.56
2023-06-07T19:07:53.025Z,101182.34
2023-06-07T19:10:19.701Z,101170.09
2023-06-07T19:12:55.912Z,101186.13
2023-06-07T19:15:22.780Z,101173.06
2023-06-07T19:17:52.657Z,101208.47
2023-06-07T19:20:19.487Z,101175.97
2023-06-07T19:22:49.897Z,101194.03
2023-06-07T19:25:17.349Z,101182.06
2023-06-07T19:27:47.181Z,101187.50
2023-06-07T19:30:21.396Z,101200.44
2023-06-07T19:32:49.735Z,101174.13
2023-06-07T19:35:19.695Z,101211.31
2023-06-07T19:37:58.278Z,101200.50
2023-06-07T19:58:23.241Z,101202.75
2023-06-07T20:04:30.686Z,101229.09
2023-06-07T20:06:59.896Z,101277.97
2023-06-07T20:09:29.405Z,101276.94
2023-06-07T20:12:04.087Z,101240.25
2023-06-07T20:17:48.574Z,101260.63
2023-06-07T20:20:15.859Z,101262.47
2023-06-07T20:22:46.180Z,101267.06
2023-06-07T20:25:12.839Z,101250.75
2023-06-07T20:27:39.284Z,101273.41
2023-06-07T20:30:07.103Z,101260.34
2023-06-07T20:32:33.856Z,101259.97
2023-06-07T20:35:00.330Z,101282.47
2023-06-07T20:37:26.800Z,101276.53
2023-06-07T20:39:53.313Z,101276.00
2023-06-07T20:42:22.440Z,101275.84
2023-06-07T20:44:53.388Z,101278.25
2023-06-07T20:47:20.804Z,101278.41
2023-06-07T20:49:47.298Z,101287.94
2023-06-07T20:52:13.775Z,101272.97
2023-06-07T20:54:40.290Z,101280.44
2023-06-07T20:57:07.305Z,101265.31
2023-06-07T20:59:34.976Z,101279.25
2023-06-07T21:02:01.751Z,101272.81
2023-06-07T21:04:28.341Z,101270.41
2023-06-07T21:07:30.654Z,101266.50
2023-06-07T21:09:57.295Z,101273.13
2023-06-07T21:12:24.016Z,101279.09
2023-06-07T21:14:52.405Z,101278.41
2023-06-07T21:17:19.083Z,101259.00
2023-06-07T21:19:47.932Z,101279.78
2023-06-07T21:22:14.413Z,101292.56
2023-06-07T21:24:40.947Z,101264.13
2023-06-07T21:27:07.959Z,101259.88
2023-06-07T21:29:35.295Z,101271.44
2023-06-07T21:32:04.889Z,101262.75
2023-06-07T21:34:31.533Z,101254.59
2023-06-07T21:36:58.082Z,101275.72
2023-06-07T21:39:24.601Z,101276.91
2023-06-07T21:41:51.168Z,101282.16
2023-06-07T21:44:17.654Z,101273.66
2023-06-07T21:46:44.216Z,101271.94
2023-06-07T21:49:11.916Z,101282.53
2023-06-07T21:51:40.687Z,101273.31
2023-06-07T21:54:07.744Z,101276.56
2023-06-07T21:56:34.268Z,101264.31
2023-06-07T21:59:00.951Z,101265.66
2023-06-07T22:01:29.869Z,101286.09
2023-06-07T22:03:56.554Z,101269.91
2023-06-07T22:06:23.003Z,101282.53
2023-06-07T22:08:49.484Z,101271.56
2023-06-07T22:11:19.172Z,101262.69
2023-06-07T22:13:45.819Z,101278.75
2023-06-07T22:16:13.797Z,101275.88
2023-06-07T22:18:41.427Z,101271.28
2023-06-07T22:21:08.042Z,101271.56
2023-06-07T22:23:34.526Z,101278.59
2023-06-07T22:26:01.191Z,101264.56
2023-06-07T22:28:30.746Z,101283.47
2023-06-07T22:30:58.667Z,101268.13
2023-06-07T22:33:25.593Z,101260.78
2023-06-07T22:35:57.850Z,101282.06
2023-06-07T22:38:25.270Z,101273.56
2023-06-07T22:40:54.647Z,101268.47
2023-06-07T22:43:21.551Z,101262.34
2023-06-07T22:45:48.364Z,101258.44
2023-06-07T22:48:16.840Z,101262.16
2023-06-07T22:50:43.503Z,101276.66
2023-06-07T22:53:13.848Z,101280.41
2023-06-07T22:55:42.142Z,101285.81
2023-06-07T22:58:08.771Z,101276.28
2023-06-07T23:00:36.068Z,101287.34
2023-06-07T23:03:05.059Z,101284.25
2023-06-07T23:05:31.723Z,101274.38
2023-06-07T23:07:58.706Z,101267.06
2023-06-07T23:10:35.379Z,101271.69
2023-06-07T23:13:08.275Z,101260.41
2023-06-07T23:15:36.557Z,101247.97
2023-06-07T23:18:03.507Z,101266.84
2023-06-07T23:20:34.105Z,101259.84
2023-06-07T23:23:04.701Z,101258.31
2023-06-07T23:25:31.885Z,101255.56
2023-06-07T23:28:01.654Z,101247.84
2023-06-07T23:30:28.214Z,101254.84
2023-06-07T23:32:54.738Z,101256.56
2023-06-07T23:35:21.698Z,101268.44
2023-06-07T23:37:48.926Z,101269.81
2023-06-07T23:40:16.978Z,101284.78
2023-06-07T23:42:44.945Z,101261.69
2023-06-07T23:45:14.521Z,101259.69
2023-06-07T23:47:41.180Z,101266.50
2023-06-07T23:50:08.864Z,101267.84
2023-06-07T23:52:36.466Z,101266.13
2023-06-07T23:55:03.263Z,101268.50
2023-06-07T23:57:30.352Z,101267.81
2023-06-07T23:59:57.290Z,101263.03
